Adrar, Algeria

6:24 AM CET on August 04, 2015 (GMT +0100)
Touat-Ch Sidi Mohamed Belkebir | | Change Station
CLOSE
Current Station
Airport
Location: Adrar,
Elevation: 919 ft
Nearby Weather Stations

Elev 919 ft 27.84 °N, 0.19 °W | Updated 24 minutes ago

Haze
Haze
97 °F
Feels Like 97 °F
N
15
Wind Variable Wind from East

Today
High -- | Low -- °F
--% Chance of Precip.
Yesterday
High -- | Low -- °F
Precip. -- in
6:24 AM 7:48 PM
Waning Gibbous, 81% visible
Pressure 29.83 in
Visibility 0.4 miles
Clouds
Dew Point 46 °F
Humidity 18%
Rainfall 0.00 in
Snow Depth Not available.
UV Not available.
Pollen Not available.
Air Quality Not available.
Flu Activity Not available.
METAR DAUA 040500Z 09013KT 0700 HZ NSC 36/08 Q1010

More Conditions Fewer Conditions

Pressure 29.83 in
Visibility 0.4 miles
Clouds
Dew Point 46 °F
Humidity 18%
Rainfall 0.00 in
Snow Depth Not available.
UV Not available.
Pollen Not available.
Air Quality Not available.
Flu Activity Not available.
METAR DAUA 040500Z 09013KT 0700 HZ NSC 36/08 Q1010

More Conditions Fewer Conditions

10-Day Weather Forecast

×

Almanac

Astronomy

Aug. 04, 2015 Rise Set
Actual Time
Civil Twilight
Nautical Twilight
Astronomical Twilight
Moon
Length of Visible Light
Length of Day
Tomorrow will be .
, % of the Moon is Illuminated

Today's Extremes

Country Highs Country Lows

Community

WunderPhotos

Upload Photos

1,843,868 photos uploaded!

WunderBlogs® & News

Nearby

Air Quality

  Air Quality AQ Index Pollutant
Not available.

Snow Depth

Station Depth Elevation

Earthquake Activity

City Distance Mag. Time & Date
Minimum magnitude displayed is 2.5.

Coastal Water Temperatures

Place Temperature

Stations

Nearby Weather Stations

Station Location Temp. Windchill Dew Point Humidity Wind Precip. Elev Updated Type